• Join FlightAware (Why Join?)
  • Login
  • US Flag 
11:56PM EDT


 

Airport Tracker/Info


-or-


 

Live Flight TrackerFlight Track Log ✈ SKQ225 ✈ 01-May-2013 ✈ KSDF - KOSU

Flight Track Log - Related Links

Times and Time Zones

All times are in EDT time to prevent confusion due to time zone crossing. See the SKQ225 flight status page for this flight to view local times or setup timezone preferences in your user account.

Time Position Orientation Groundspeed Altitude Reporting Facility
EDT Latitude Longitude Course Direction KTS MPH feet Rate Location/Type
04:24AM 38.1500 -85.6833 38° Northeast 132 152 2,000  Level Louisville TRACON
04:25AM 38.1742 -85.6592 38° Northeast 143 165 2,900 960 Climbing Indianapolis Center
04:26AM 38.2000 -85.6222 48° Northeast 144 166 3,900 900 Climbing Indianapolis Center
04:27AM 38.2275 -85.5858 46° Northeast 143 165 4,800 840 Climbing Indianapolis Center
04:28AM 38.2572 -85.5481 45° Northeast 147 169 5,700 900 Climbing Indianapolis Center
04:29AM 38.3455 -85.4879 38° Northeast  Level FlightAware Approximate
04:29AM 38.2875 -85.5078 46° Northeast 154 177 6,600  Level Indianapolis Center
04:30AM 38.3203 -85.4650 46° Northeast 165 190 7,100 180 Climbing Indianapolis Center
04:31AM 38.3617 -85.4125 45° Northeast 200 230 7,000 -60 Descending Indianapolis Center
04:32AM 38.4008 -85.3608 46° Northeast 203 234 7,000  Level Indianapolis Center
04:33AM 38.4403 -85.3086 46° Northeast 203 234 7,000  Level Indianapolis Center
04:34AM 38.4778 -85.2594 46° Northeast 196 226 7,000  Level Indianapolis Center
04:35AM 38.5175 -85.2075 46° Northeast 197 227 7,000  Level Indianapolis Center
04:36AM 38.5522 -85.1622 46° Northeast 196 226 7,000  Level Indianapolis Center
04:37AM 38.5967 -85.1028 46° Northeast 197 227 7,000  Level Indianapolis Center
04:38AM 38.6344 -85.0503 47° Northeast 199 229 7,000  Level Indianapolis Center
04:39AM 38.6706 -85.0025 46° Northeast 200 230 7,000  Level Indianapolis Center
04:40AM 38.7106 -84.9522 44° Northeast 200 230 7,000  Level Indianapolis Center
04:41AM 38.7489 -84.9003 47° Northeast 199 229 7,000  Level Indianapolis Center
04:42AM 38.7878 -84.8483 46° Northeast 199 229 7,000  Level Indianapolis Center
04:43AM 38.8267 -84.7967 46° Northeast 200 230 7,000  Level Indianapolis Center
04:44AM 38.8644 -84.7450 47° Northeast 198 228 7,000  Level Indianapolis Center
04:45AM 38.9000 -84.6833 53° Northeast 197 227 7,000  Level Cincinnati TRACON
04:46AM 38.9333 -84.6500 38° Northeast 197 227 7,000  Level Cincinnati TRACON
04:47AM 38.9833 -84.6000 38° Northeast 199 229 7,000  Level Cincinnati TRACON
04:49AM 39.0456 -84.5031 50° Northeast 193 222 7,100  Climbing Indianapolis Center
04:49AM 39.0547 -84.4911 45° Northeast 193 222 7,000  Descending Indianapolis Center
04:50AM 39.0833 -84.4489 49° Northeast 191 220 7,100  Climbing Indianapolis Center
04:51AM 39.1208 -84.4003 45° Northeast 190 219 7,100  Level Indianapolis Center
04:52AM 39.1564 -84.3511 47° Northeast 191 220 7,100 -60 Level Indianapolis Center
04:53AM 39.1986 -84.2947 46° Northeast 191 220 7,000 -60 Descending Indianapolis Center
04:54AM 39.2364 -84.2431 47° Northeast 194 223 7,000  Level Indianapolis Center
04:55AM 39.2736 -84.1942 45° Northeast 191 220 7,000  Level Indianapolis Center
04:56AM 39.3089 -84.1475 46° Northeast 185 213 7,000  Level Indianapolis Center
04:57AM 39.3467 -84.0931 48° Northeast 193 222 7,000  Level Indianapolis Center
04:58AM 39.3842 -84.0414 47° Northeast 190 219 7,000  Level Indianapolis Center
04:59AM 39.4242 -83.9869 46° Northeast 191 220 7,000  Level Indianapolis Center
05:00AM 39.4614 -83.9378 46° Northeast 192 221 7,000  Level Indianapolis Center
05:01AM 39.4967 -83.8881 47° Northeast 190 219 7,000  Level Indianapolis Center
05:02AM 39.5317 -83.8411 46° Northeast 189 217 7,000  Level Indianapolis Center
05:03AM 39.5625 -83.7936 50° Northeast 188 216 7,000  Level Indianapolis Center
05:03AM 39.5694 -83.7864 39° Northeast 189 217 7,000  Level Indianapolis Center
05:04AM 39.5997 -83.7442 47° Northeast 190 219 7,000  Level Indianapolis Center
05:05AM 39.6392 -83.6922 45° Northeast 186 214 7,000  Level Indianapolis Center
05:06AM 39.6744 -83.6425 47° Northeast 187 215 7,000  Level Indianapolis Center
05:07AM 39.7139 -83.5878 47° Northeast 186 214 7,000  Level Indianapolis Center
05:08AM 39.7444 -83.5425 49° Northeast 181 208 7,000  Level Indianapolis Center
05:09AM 39.7819 -83.4903 47° Northeast 181 208 7,000  Level Indianapolis Center
05:10AM 39.8144 -83.4450 47° Northeast 178 205 7,000  Level Indianapolis Center
05:11AM 39.8461 -83.4028 46° Northeast 175 201 7,000  Level Indianapolis Center